sensor_id;sensor_type;location;lat;lon;timestamp;P1;durP1;ratioP1;P2;durP2;ratioP2
71366;SDS011;60030;52.274;8.040;2022-08-18T00:00:07;14.52;;;12.05;;
71366;SDS011;60030;52.274;8.040;2022-08-18T00:02:39;17.27;;;12.77;;
71366;SDS011;60030;52.274;8.040;2022-08-18T00:05:08;16.52;;;11.98;;
71366;SDS011;60030;52.274;8.040;2022-08-18T00:07:37;17.17;;;12.52;;
71366;SDS011;60030;52.274;8.040;2022-08-18T00:10:04;15.25;;;11.98;;
71366;SDS011;60030;52.274;8.040;2022-08-18T00:12:33;18.27;;;13.73;;
71366;SDS011;60030;52.274;8.040;2022-08-18T00:15:02;18.48;;;13.32;;
71366;SDS011;60030;52.274;8.040;2022-08-18T00:17:30;14.48;;;12.07;;
71366;SDS011;60030;52.274;8.040;2022-08-18T00:19:59;18.48;;;14.02;;
71366;SDS011;60030;52.274;8.040;2022-08-18T00:22:27;17.35;;;13.70;;
71366;SDS011;60030;52.274;8.040;2022-08-18T00:24:55;15.82;;;12.85;;
71366;SDS011;60030;52.274;8.040;2022-08-18T00:27:23;18.85;;;13.55;;
71366;SDS011;60030;52.274;8.040;2022-08-18T00:29:52;15.48;;;12.27;;
71366;SDS011;60030;52.274;8.040;2022-08-18T00:32:21;16.73;;;13.57;;
71366;SDS011;60030;52.274;8.040;2022-08-18T00:34:52;17.77;;;12.70;;
71366;SDS011;60030;52.274;8.040;2022-08-18T00:37:21;17.08;;;13.75;;
71366;SDS011;60030;52.274;8.040;2022-08-18T00:39:50;18.13;;;12.80;;
71366;SDS011;60030;52.274;8.040;2022-08-18T00:42:19;15.60;;;12.75;;
71366;SDS011;60030;52.274;8.040;2022-08-18T00:44:48;20.27;;;14.23;;
71366;SDS011;60030;52.274;8.040;2022-08-18T00:47:15;18.05;;;13.38;;
71366;SDS011;60030;52.274;8.040;2022-08-18T00:49:42;20.23;;;12.82;;
71366;SDS011;60030;52.274;8.040;2022-08-18T00:52:11;16.13;;;12.77;;
71366;SDS011;60030;52.274;8.040;2022-08-18T00:54:42;14.18;;;11.85;;
71366;SDS011;60030;52.274;8.040;2022-08-18T00:57:11;16.25;;;12.32;;
71366;SDS011;60030;52.274;8.040;2022-08-18T00:59:42;15.23;;;12.63;;
71366;SDS011;60030;52.274;8.040;2022-08-18T01:02:14;15.75;;;12.75;;
71366;SDS011;60030;52.274;8.040;2022-08-18T01:04:46;17.35;;;13.48;;
71366;SDS011;60030;52.274;8.040;2022-08-18T01:07:19;16.52;;;13.05;;
71366;SDS011;60030;52.274;8.040;2022-08-18T01:09:51;18.58;;;13.65;;
71366;SDS011;60030;52.274;8.040;2022-08-18T01:12:18;16.80;;;13.77;;
71366;SDS011;60030;52.274;8.040;2022-08-18T01:14:45;17.85;;;13.48;;
71366;SDS011;60030;52.274;8.040;2022-08-18T01:17:13;17.48;;;13.27;;
71366;SDS011;60030;52.274;8.040;2022-08-18T01:19:58;17.95;;;14.18;;
71366;SDS011;60030;52.274;8.040;2022-08-18T01:22:48;15.27;;;13.02;;
71366;SDS011;60030;52.274;8.040;2022-08-18T01:25:21;18.67;;;14.45;;
71366;SDS011;60030;52.274;8.040;2022-08-18T01:28:06;17.38;;;13.68;;
71366;SDS011;60030;52.274;8.040;2022-08-18T01:30:43;18.58;;;14.18;;
71366;SDS011;60030;52.274;8.040;2022-08-18T01:33:13;21.20;;;16.48;;
71366;SDS011;60030;52.274;8.040;2022-08-18T01:35:40;18.48;;;14.98;;
71366;SDS011;60030;52.274;8.040;2022-08-18T01:38:15;20.83;;;16.13;;
71366;SDS011;60030;52.274;8.040;2022-08-18T01:40:43;19.55;;;14.63;;
71366;SDS011;60030;52.274;8.040;2022-08-18T01:43:11;17.85;;;14.52;;
71366;SDS011;60030;52.274;8.040;2022-08-18T01:45:38;21.20;;;14.90;;
71366;SDS011;60030;52.274;8.040;2022-08-18T01:48:06;23.15;;;16.05;;
71366;SDS011;60030;52.274;8.040;2022-08-18T01:50:34;19.83;;;15.48;;
71366;SDS011;60030;52.274;8.040;2022-08-18T01:53:02;19.42;;;15.63;;
71366;SDS011;60030;52.274;8.040;2022-08-18T01:55:31;20.65;;;16.15;;
71366;SDS011;60030;52.274;8.040;2022-08-18T01:57:58;20.85;;;15.32;;
71366;SDS011;60030;52.274;8.040;2022-08-18T02:00:26;23.45;;;17.67;;
71366;SDS011;60030;52.274;8.040;2022-08-18T02:02:56;21.95;;;16.30;;
71366;SDS011;60030;52.274;8.040;2022-08-18T02:05:26;23.23;;;16.20;;
71366;SDS011;60030;52.274;8.040;2022-08-18T02:07:58;21.35;;;17.17;;
71366;SDS011;60030;52.274;8.040;2022-08-18T02:10:25;19.42;;;15.88;;
71366;SDS011;60030;52.274;8.040;2022-08-18T02:12:54;23.30;;;16.85;;
71366;SDS011;60030;52.274;8.040;2022-08-18T02:15:21;24.38;;;17.17;;
71366;SDS011;60030;52.274;8.040;2022-08-18T02:17:48;20.40;;;15.68;;
71366;SDS011;60030;52.274;8.040;2022-08-18T02:20:16;21.88;;;16.23;;
71366;SDS011;60030;52.274;8.040;2022-08-18T02:22:45;21.35;;;15.02;;
71366;SDS011;60030;52.274;8.040;2022-08-18T02:25:13;22.80;;;16.58;;
71366;SDS011;60030;52.274;8.040;2022-08-18T02:27:41;20.08;;;15.40;;
71366;SDS011;60030;52.274;8.040;2022-08-18T02:30:11;21.00;;;15.52;;
71366;SDS011;60030;52.274;8.040;2022-08-18T02:32:40;20.52;;;15.77;;
71366;SDS011;60030;52.274;8.040;2022-08-18T02:35:08;21.63;;;15.63;;
71366;SDS011;60030;52.274;8.040;2022-08-18T02:37:36;20.98;;;16.58;;
71366;SDS011;60030;52.274;8.040;2022-08-18T02:40:04;19.05;;;14.77;;
71366;SDS011;60030;52.274;8.040;2022-08-18T02:42:32;20.45;;;15.10;;
71366;SDS011;60030;52.274;8.040;2022-08-18T02:44:59;20.15;;;15.25;;
71366;SDS011;60030;52.274;8.040;2022-08-18T02:47:27;19.15;;;15.82;;
71366;SDS011;60030;52.274;8.040;2022-08-18T02:49:54;22.92;;;16.45;;
71366;SDS011;60030;52.274;8.040;2022-08-18T02:52:22;20.67;;;16.05;;
71366;SDS011;60030;52.274;8.040;2022-08-18T02:54:51;20.08;;;16.10;;
71366;SDS011;60030;52.274;8.040;2022-08-18T02:57:18;25.02;;;17.95;;
71366;SDS011;60030;52.274;8.040;2022-08-18T02:59:47;25.90;;;19.75;;
71366;SDS011;60030;52.274;8.040;2022-08-18T03:02:15;23.25;;;17.95;;
71366;SDS011;60030;52.274;8.040;2022-08-18T03:04:43;25.35;;;18.52;;
71366;SDS011;60030;52.274;8.040;2022-08-18T03:07:11;26.10;;;19.33;;
71366;SDS011;60030;52.274;8.040;2022-08-18T03:09:42;24.40;;;17.67;;
71366;SDS011;60030;52.274;8.040;2022-08-18T03:12:09;23.17;;;17.58;;
71366;SDS011;60030;52.274;8.040;2022-08-18T03:14:36;30.27;;;20.52;;
71366;SDS011;60030;52.274;8.040;2022-08-18T03:17:05;23.38;;;19.27;;
71366;SDS011;60030;52.274;8.040;2022-08-18T03:19:34;26.15;;;20.10;;
71366;SDS011;60030;52.274;8.040;2022-08-18T03:22:03;27.60;;;20.13;;
71366;SDS011;60030;52.274;8.040;2022-08-18T03:24:33;29.67;;;21.98;;
71366;SDS011;60030;52.274;8.040;2022-08-18T03:27:02;30.05;;;21.63;;
71366;SDS011;60030;52.274;8.040;2022-08-18T03:29:31;27.02;;;19.92;;
71366;SDS011;60030;52.274;8.040;2022-08-18T03:31:59;30.83;;;21.67;;
71366;SDS011;60030;52.274;8.040;2022-08-18T03:34:27;33.72;;;24.85;;
71366;SDS011;60030;52.274;8.040;2022-08-18T03:36:55;31.65;;;22.45;;
71366;SDS011;60030;52.274;8.040;2022-08-18T03:39:24;33.50;;;23.33;;
71366;SDS011;60030;52.274;8.040;2022-08-18T03:41:53;40.30;;;27.20;;
71366;SDS011;60030;52.274;8.040;2022-08-18T03:44:21;41.35;;;26.55;;
71366;SDS011;60030;52.274;8.040;2022-08-18T03:46:49;41.92;;;27.90;;
71366;SDS011;60030;52.274;8.040;2022-08-18T03:49:17;47.50;;;28.40;;
71366;SDS011;60030;52.274;8.040;2022-08-18T03:51:45;39.58;;;26.92;;
71366;SDS011;60030;52.274;8.040;2022-08-18T03:54:13;45.08;;;29.20;;
71366;SDS011;60030;52.274;8.040;2022-08-18T03:56:42;44.70;;;29.95;;
71366;SDS011;60030;52.274;8.040;2022-08-18T03:59:11;43.22;;;29.05;;
71366;SDS011;60030;52.274;8.040;2022-08-18T04:01:42;46.47;;;28.90;;
71366;SDS011;60030;52.274;8.040;2022-08-18T04:04:11;50.88;;;31.83;;
71366;SDS011;60030;52.274;8.040;2022-08-18T04:06:41;45.33;;;30.27;;
71366;SDS011;60030;52.274;8.040;2022-08-18T04:09:13;53.25;;;32.75;;
71366;SDS011;60030;52.274;8.040;2022-08-18T04:11:41;52.70;;;32.67;;
71366;SDS011;60030;52.274;8.040;2022-08-18T04:14:10;58.28;;;34.58;;
71366;SDS011;60030;52.274;8.040;2022-08-18T04:16:38;61.60;;;36.42;;
71366;SDS011;60030;52.274;8.040;2022-08-18T04:19:06;54.22;;;33.30;;
71366;SDS011;60030;52.274;8.040;2022-08-18T04:21:35;54.75;;;33.20;;
71366;SDS011;60030;52.274;8.040;2022-08-18T04:24:04;56.65;;;35.38;;
71366;SDS011;60030;52.274;8.040;2022-08-18T04:26:33;58.15;;;35.83;;
71366;SDS011;60030;52.274;8.040;2022-08-18T04:29:03;60.42;;;37.00;;
71366;SDS011;60030;52.274;8.040;2022-08-18T04:31:31;57.75;;;36.03;;
71366;SDS011;60030;52.274;8.040;2022-08-18T04:33:59;56.55;;;35.63;;
71366;SDS011;60030;52.274;8.040;2022-08-18T04:36:28;59.05;;;38.25;;
71366;SDS011;60030;52.274;8.040;2022-08-18T04:38:58;64.60;;;37.55;;
71366;SDS011;60030;52.274;8.040;2022-08-18T04:41:26;60.25;;;38.47;;
71366;SDS011;60030;52.274;8.040;2022-08-18T04:43:54;66.70;;;37.90;;
71366;SDS011;60030;52.274;8.040;2022-08-18T04:46:24;61.88;;;36.17;;
71366;SDS011;60030;52.274;8.040;2022-08-18T04:48:52;57.90;;;36.00;;
71366;SDS011;60030;52.274;8.040;2022-08-18T04:51:23;63.38;;;37.58;;
71366;SDS011;60030;52.274;8.040;2022-08-18T04:53:51;64.55;;;37.80;;
71366;SDS011;60030;52.274;8.040;2022-08-18T04:56:19;64.45;;;39.85;;
71366;SDS011;60030;52.274;8.040;2022-08-18T04:58:51;58.90;;;37.47;;
71366;SDS011;60030;52.274;8.040;2022-08-18T05:01:20;64.15;;;37.40;;
71366;SDS011;60030;52.274;8.040;2022-08-18T05:03:50;60.97;;;37.30;;
71366;SDS011;60030;52.274;8.040;2022-08-18T05:06:18;59.28;;;36.35;;
71366;SDS011;60030;52.274;8.040;2022-08-18T05:08:49;57.38;;;34.75;;
71366;SDS011;60030;52.274;8.040;2022-08-18T05:11:17;59.28;;;37.60;;
71366;SDS011;60030;52.274;8.040;2022-08-18T05:13:45;63.85;;;37.97;;
71366;SDS011;60030;52.274;8.040;2022-08-18T05:16:12;65.13;;;39.22;;
71366;SDS011;60030;52.274;8.040;2022-08-18T05:18:40;65.35;;;36.92;;
71366;SDS011;60030;52.274;8.040;2022-08-18T05:21:08;64.05;;;37.78;;
71366;SDS011;60030;52.274;8.040;2022-08-18T05:23:40;61.72;;;38.50;;
71366;SDS011;60030;52.274;8.040;2022-08-18T05:26:07;67.72;;;40.85;;
71366;SDS011;60030;52.274;8.040;2022-08-18T05:28:35;68.15;;;41.33;;
71366;SDS011;60030;52.274;8.040;2022-08-18T05:31:06;64.57;;;39.15;;
71366;SDS011;60030;52.274;8.040;2022-08-18T05:33:34;64.88;;;41.10;;
71366;SDS011;60030;52.274;8.040;2022-08-18T05:36:03;67.60;;;39.92;;
71366;SDS011;60030;52.274;8.040;2022-08-18T05:38:44;61.83;;;39.55;;
71366;SDS011;60030;52.274;8.040;2022-08-18T05:41:20;63.30;;;39.03;;
71366;SDS011;60030;52.274;8.040;2022-08-18T05:43:52;62.03;;;39.58;;
71366;SDS011;60030;52.274;8.040;2022-08-18T05:46:21;66.82;;;41.55;;
71366;SDS011;60030;52.274;8.040;2022-08-18T05:48:57;61.25;;;38.83;;
71366;SDS011;60030;52.274;8.040;2022-08-18T05:51:26;66.40;;;40.42;;
71366;SDS011;60030;52.274;8.040;2022-08-18T05:53:59;63.30;;;39.90;;
71366;SDS011;60030;52.274;8.040;2022-08-18T05:56:45;65.47;;;39.90;;
71366;SDS011;60030;52.274;8.040;2022-08-18T05:59:17;66.63;;;40.40;;
71366;SDS011;60030;52.274;8.040;2022-08-18T06:01:49;65.95;;;40.55;;
71366;SDS011;60030;52.274;8.040;2022-08-18T06:04:24;65.05;;;40.88;;
71366;SDS011;60030;52.274;8.040;2022-08-18T06:06:55;66.65;;;42.55;;
71366;SDS011;60030;52.274;8.040;2022-08-18T06:09:28;67.38;;;42.10;;
71366;SDS011;60030;52.274;8.040;2022-08-18T06:12:03;66.90;;;42.55;;
71366;SDS011;60030;52.274;8.040;2022-08-18T06:14:41;69.40;;;41.20;;
71366;SDS011;60030;52.274;8.040;2022-08-18T06:17:12;74.40;;;42.58;;
71366;SDS011;60030;52.274;8.040;2022-08-18T06:19:51;65.60;;;41.28;;
71366;SDS011;60030;52.274;8.040;2022-08-18T06:22:27;69.70;;;40.78;;
71366;SDS011;60030;52.274;8.040;2022-08-18T06:25:05;67.53;;;41.35;;
71366;SDS011;60030;52.274;8.040;2022-08-18T06:27:42;72.38;;;42.25;;
71366;SDS011;60030;52.274;8.040;2022-08-18T06:30:21;71.00;;;43.10;;
71366;SDS011;60030;52.274;8.040;2022-08-18T06:33:01;65.80;;;40.80;;
71366;SDS011;60030;52.274;8.040;2022-08-18T06:35:38;67.35;;;42.17;;
71366;SDS011;60030;52.274;8.040;2022-08-18T06:38:17;62.33;;;38.63;;
71366;SDS011;60030;52.274;8.040;2022-08-18T06:41:11;62.85;;;38.70;;
71366;SDS011;60030;52.274;8.040;2022-08-18T06:43:43;66.00;;;41.00;;
71366;SDS011;60030;52.274;8.040;2022-08-18T06:46:22;61.67;;;38.38;;
71366;SDS011;60030;52.274;8.040;2022-08-18T06:48:58;66.88;;;40.40;;
71366;SDS011;60030;52.274;8.040;2022-08-18T06:51:29;65.55;;;38.92;;
71366;SDS011;60030;52.274;8.040;2022-08-18T06:53:58;67.20;;;40.58;;
71366;SDS011;60030;52.274;8.040;2022-08-18T06:56:33;63.10;;;39.42;;
71366;SDS011;60030;52.274;8.040;2022-08-18T06:59:13;68.72;;;41.40;;
71366;SDS011;60030;52.274;8.040;2022-08-18T07:01:43;58.83;;;39.10;;
71366;SDS011;60030;52.274;8.040;2022-08-18T07:06:56;61.60;;;38.17;;
71366;SDS011;60030;52.274;8.040;2022-08-18T07:09:24;61.05;;;36.40;;
71366;SDS011;60030;52.274;8.040;2022-08-18T07:12:03;58.95;;;37.50;;
71366;SDS011;60030;52.274;8.040;2022-08-18T07:14:40;55.55;;;36.15;;
71366;SDS011;60030;52.274;8.040;2022-08-18T07:17:10;55.17;;;35.00;;
71366;SDS011;60030;52.274;8.040;2022-08-18T07:19:39;54.13;;;35.60;;
71366;SDS011;60030;52.274;8.040;2022-08-18T07:22:07;55.15;;;34.65;;
71366;SDS011;60030;52.274;8.040;2022-08-18T07:24:38;56.95;;;35.25;;
71366;SDS011;60030;52.274;8.040;2022-08-18T07:27:09;55.13;;;33.83;;
71366;SDS011;60030;52.274;8.040;2022-08-18T07:29:38;55.17;;;34.55;;
71366;SDS011;60030;52.274;8.040;2022-08-18T07:32:09;54.35;;;33.63;;
71366;SDS011;60030;52.274;8.040;2022-08-18T07:34:41;48.13;;;30.20;;
71366;SDS011;60030;52.274;8.040;2022-08-18T07:37:16;46.20;;;30.38;;
71366;SDS011;60030;52.274;8.040;2022-08-18T07:39:49;41.42;;;27.70;;
71366;SDS011;60030;52.274;8.040;2022-08-18T07:42:23;40.92;;;25.42;;
71366;SDS011;60030;52.274;8.040;2022-08-18T07:44:59;37.38;;;25.00;;
71366;SDS011;60030;52.274;8.040;2022-08-18T07:47:33;32.55;;;22.77;;
71366;SDS011;60030;52.274;8.040;2022-08-18T07:50:05;34.53;;;22.17;;
71366;SDS011;60030;52.274;8.040;2022-08-18T07:52:35;36.00;;;22.80;;
71366;SDS011;60030;52.274;8.040;2022-08-18T07:55:06;35.95;;;22.30;;
71366;SDS011;60030;52.274;8.040;2022-08-18T07:57:44;37.40;;;22.95;;
71366;SDS011;60030;52.274;8.040;2022-08-18T08:00:19;31.67;;;21.75;;
71366;SDS011;60030;52.274;8.040;2022-08-18T08:03:05;33.85;;;20.17;;
71366;SDS011;60030;52.274;8.040;2022-08-18T08:05:48;32.40;;;21.08;;
71366;SDS011;60030;52.274;8.040;2022-08-18T08:08:24;34.05;;;21.92;;
71366;SDS011;60030;52.274;8.040;2022-08-18T08:11:01;29.85;;;20.02;;
71366;SDS011;60030;52.274;8.040;2022-08-18T08:13:38;31.38;;;20.42;;
71366;SDS011;60030;52.274;8.040;2022-08-18T08:16:13;34.30;;;21.10;;
71366;SDS011;60030;52.274;8.040;2022-08-18T08:18:47;34.17;;;20.70;;
71366;SDS011;60030;52.274;8.040;2022-08-18T08:21:22;34.08;;;21.48;;
71366;SDS011;60030;52.274;8.040;2022-08-18T08:23:54;35.92;;;22.23;;
71366;SDS011;60030;52.274;8.040;2022-08-18T08:26:40;33.65;;;20.58;;
71366;SDS011;60030;52.274;8.040;2022-08-18T08:29:23;38.65;;;23.42;;
71366;SDS011;60030;52.274;8.040;2022-08-18T08:32:01;31.77;;;20.83;;
71366;SDS011;60030;52.274;8.040;2022-08-18T08:34:32;33.00;;;21.67;;
71366;SDS011;60030;52.274;8.040;2022-08-18T08:37:06;28.45;;;20.08;;
71366;SDS011;60030;52.274;8.040;2022-08-18T08:39:40;28.00;;;20.42;;
71366;SDS011;60030;52.274;8.040;2022-08-18T08:42:13;31.55;;;20.50;;
71366;SDS011;60030;52.274;8.040;2022-08-18T08:44:47;29.00;;;20.23;;
71366;SDS011;60030;52.274;8.040;2022-08-18T08:47:20;30.17;;;19.88;;
71366;SDS011;60030;52.274;8.040;2022-08-18T08:49:53;28.90;;;20.23;;
71366;SDS011;60030;52.274;8.040;2022-08-18T08:52:25;28.95;;;18.83;;
71366;SDS011;60030;52.274;8.040;2022-08-18T08:54:57;22.58;;;16.52;;
71366;SDS011;60030;52.274;8.040;2022-08-18T08:57:36;22.05;;;15.43;;
71366;SDS011;60030;52.274;8.040;2022-08-18T09:00:09;24.38;;;17.40;;
71366;SDS011;60030;52.274;8.040;2022-08-18T09:02:43;22.65;;;14.63;;
71366;SDS011;60030;52.274;8.040;2022-08-18T09:05:27;22.48;;;14.32;;
71366;SDS011;60030;52.274;8.040;2022-08-18T09:08:02;20.15;;;14.63;;
71366;SDS011;60030;52.274;8.040;2022-08-18T09:10:57;20.45;;;14.80;;
71366;SDS011;60030;52.274;8.040;2022-08-18T09:13:50;16.23;;;13.43;;
71366;SDS011;60030;52.274;8.040;2022-08-18T09:16:42;17.30;;;13.27;;
71366;SDS011;60030;52.274;8.040;2022-08-18T09:19:27;15.95;;;12.75;;
71366;SDS011;60030;52.274;8.040;2022-08-18T09:22:15;16.35;;;12.30;;
71366;SDS011;60030;52.274;8.040;2022-08-18T09:24:52;14.98;;;12.07;;
71366;SDS011;60030;52.274;8.040;2022-08-18T09:27:24;16.50;;;11.63;;
71366;SDS011;60030;52.274;8.040;2022-08-18T09:30:01;19.55;;;13.52;;
71366;SDS011;60030;52.274;8.040;2022-08-18T09:32:35;21.27;;;14.23;;
71366;SDS011;60030;52.274;8.040;2022-08-18T09:35:12;18.75;;;13.48;;
71366;SDS011;60030;52.274;8.040;2022-08-18T09:37:51;19.63;;;14.02;;
71366;SDS011;60030;52.274;8.040;2022-08-18T09:40:40;17.98;;;12.63;;
71366;SDS011;60030;52.274;8.040;2022-08-18T09:43:31;19.00;;;13.07;;
71366;SDS011;60030;52.274;8.040;2022-08-18T09:46:03;21.60;;;13.88;;
71366;SDS011;60030;52.274;8.040;2022-08-18T09:48:34;16.38;;;13.18;;
71366;SDS011;60030;52.274;8.040;2022-08-18T09:54:07;17.13;;;12.77;;
71366;SDS011;60030;52.274;8.040;2022-08-18T09:56:54;15.55;;;12.38;;
71366;SDS011;60030;52.274;8.040;2022-08-18T10:11:58;17.67;;;11.98;;
71366;SDS011;60030;52.274;8.040;2022-08-18T10:14:39;14.13;;;10.10;;
71366;SDS011;60030;52.274;8.040;2022-08-18T10:17:35;14.18;;;10.13;;
71366;SDS011;60030;52.274;8.040;2022-08-18T10:20:18;11.38;;;9.35;;
71366;SDS011;60030;52.274;8.040;2022-08-18T10:22:52;12.07;;;9.43;;
71366;SDS011;60030;52.274;8.040;2022-08-18T10:25:32;10.35;;;7.88;;
71366;SDS011;60030;52.274;8.040;2022-08-18T10:28:02;10.27;;;8.55;;
71366;SDS011;60030;52.274;8.040;2022-08-18T10:36:32;7.85;;;6.10;;
71366;SDS011;60030;52.274;8.040;2022-08-18T10:39:10;8.50;;;7.10;;
71366;SDS011;60030;52.274;8.040;2022-08-18T10:41:45;7.97;;;6.43;;
71366;SDS011;60030;52.274;8.040;2022-08-18T10:44:29;8.63;;;6.55;;
71366;SDS011;60030;52.274;8.040;2022-08-18T10:46:59;11.38;;;6.45;;
71366;SDS011;60030;52.274;8.040;2022-08-18T10:49:29;7.82;;;5.57;;
71366;SDS011;60030;52.274;8.040;2022-08-18T10:52:05;6.20;;;5.60;;
71366;SDS011;60030;52.274;8.040;2022-08-18T10:55:11;6.00;;;5.20;;
71366;SDS011;60030;52.274;8.040;2022-08-18T10:57:58;5.57;;;4.85;;
71366;SDS011;60030;52.274;8.040;2022-08-18T11:00:40;6.00;;;5.40;;
71366;SDS011;60030;52.274;8.040;2022-08-18T11:03:19;6.13;;;5.50;;
71366;SDS011;60030;52.274;8.040;2022-08-18T11:06:00;7.43;;;5.82;;
71366;SDS011;60030;52.274;8.040;2022-08-18T11:08:28;8.05;;;6.10;;
71366;SDS011;60030;52.274;8.040;2022-08-18T11:11:06;8.57;;;6.72;;
71366;SDS011;60030;52.274;8.040;2022-08-18T11:13:36;9.45;;;7.45;;
71366;SDS011;60030;52.274;8.040;2022-08-18T11:16:21;9.88;;;7.78;;
71366;SDS011;60030;52.274;8.040;2022-08-18T11:19:02;8.30;;;6.97;;
71366;SDS011;60030;52.274;8.040;2022-08-18T11:21:36;9.25;;;6.70;;
71366;SDS011;60030;52.274;8.040;2022-08-18T11:24:10;7.85;;;6.97;;
71366;SDS011;60030;52.274;8.040;2022-08-18T11:26:42;7.35;;;5.82;;
71366;SDS011;60030;52.274;8.040;2022-08-18T11:29:24;7.05;;;6.07;;
71366;SDS011;60030;52.274;8.040;2022-08-18T11:31:57;7.32;;;5.32;;
71366;SDS011;60030;52.274;8.040;2022-08-18T11:34:29;6.50;;;5.82;;
71366;SDS011;60030;52.274;8.040;2022-08-18T11:37:01;7.50;;;5.70;;
71366;SDS011;60030;52.274;8.040;2022-08-18T11:39:32;7.57;;;5.80;;
71366;SDS011;60030;52.274;8.040;2022-08-18T11:42:08;7.68;;;5.60;;
71366;SDS011;60030;52.274;8.040;2022-08-18T11:44:35;7.05;;;6.00;;
71366;SDS011;60030;52.274;8.040;2022-08-18T11:47:09;11.65;;;7.20;;
71366;SDS011;60030;52.274;8.040;2022-08-18T11:49:52;7.65;;;6.53;;
71366;SDS011;60030;52.274;8.040;2022-08-18T11:52:23;8.70;;;6.00;;
71366;SDS011;60030;52.274;8.040;2022-08-18T11:54:51;6.90;;;6.20;;
71366;SDS011;60030;52.274;8.040;2022-08-18T11:57:36;7.90;;;6.55;;
71366;SDS011;60030;52.274;8.040;2022-08-18T12:03:07;7.13;;;5.95;;
71366;SDS011;60030;52.274;8.040;2022-08-18T12:05:40;9.63;;;6.70;;
71366;SDS011;60030;52.274;8.040;2022-08-18T12:08:15;6.95;;;6.25;;
71366;SDS011;60030;52.274;8.040;2022-08-18T12:10:46;8.00;;;6.93;;
71366;SDS011;60030;52.274;8.040;2022-08-18T12:13:21;8.80;;;6.80;;
71366;SDS011;60030;52.274;8.040;2022-08-18T12:18:35;10.43;;;7.20;;
71366;SDS011;60030;52.274;8.040;2022-08-18T12:21:03;11.38;;;8.50;;
71366;SDS011;60030;52.274;8.040;2022-08-18T12:23:30;9.80;;;7.32;;
71366;SDS011;60030;52.274;8.040;2022-08-18T12:25:58;8.60;;;7.53;;
71366;SDS011;60030;52.274;8.040;2022-08-18T12:28:26;9.82;;;7.07;;
71366;SDS011;60030;52.274;8.040;2022-08-18T12:30:54;9.57;;;7.47;;
71366;SDS011;60030;52.274;8.040;2022-08-18T12:33:21;8.02;;;7.10;;
71366;SDS011;60030;52.274;8.040;2022-08-18T12:35:48;10.95;;;6.75;;
71366;SDS011;60030;52.274;8.040;2022-08-18T12:38:15;7.85;;;7.05;;
71366;SDS011;60030;52.274;8.040;2022-08-18T12:40:43;9.93;;;6.82;;
71366;SDS011;60030;52.274;8.040;2022-08-18T12:43:10;9.57;;;6.70;;
71366;SDS011;60030;52.274;8.040;2022-08-18T12:45:39;7.45;;;6.22;;
71366;SDS011;60030;52.274;8.040;2022-08-18T12:48:06;7.93;;;6.38;;
71366;SDS011;60030;52.274;8.040;2022-08-18T12:50:34;11.77;;;6.90;;
71366;SDS011;60030;52.274;8.040;2022-08-18T12:53:02;8.23;;;6.97;;
71366;SDS011;60030;52.274;8.040;2022-08-18T12:55:30;7.97;;;7.18;;
71366;SDS011;60030;52.274;8.040;2022-08-18T12:58:00;10.25;;;6.25;;
71366;SDS011;60030;52.274;8.040;2022-08-18T13:00:28;5.30;;;4.80;;
71366;SDS011;60030;52.274;8.040;2022-08-18T13:02:56;6.47;;;4.93;;
71366;SDS011;60030;52.274;8.040;2022-08-18T13:05:24;5.85;;;4.85;;
71366;SDS011;60030;52.274;8.040;2022-08-18T13:07:51;5.07;;;4.55;;
71366;SDS011;60030;52.274;8.040;2022-08-18T13:10:18;4.65;;;4.25;;
71366;SDS011;60030;52.274;8.040;2022-08-18T13:12:45;6.57;;;4.57;;
71366;SDS011;60030;52.274;8.040;2022-08-18T13:15:12;4.53;;;4.10;;
71366;SDS011;60030;52.274;8.040;2022-08-18T13:17:39;6.93;;;4.65;;
71366;SDS011;60030;52.274;8.040;2022-08-18T13:20:09;4.63;;;4.22;;
71366;SDS011;60030;52.274;8.040;2022-08-18T13:22:38;6.05;;;4.93;;
71366;SDS011;60030;52.274;8.040;2022-08-18T13:25:07;5.85;;;4.97;;
71366;SDS011;60030;52.274;8.040;2022-08-18T13:27:36;5.43;;;4.93;;
71366;SDS011;60030;52.274;8.040;2022-08-18T13:30:05;5.30;;;4.80;;
71366;SDS011;60030;52.274;8.040;2022-08-18T13:32:34;9.20;;;4.90;;
71366;SDS011;60030;52.274;8.040;2022-08-18T13:35:01;6.53;;;5.05;;
71366;SDS011;60030;52.274;8.040;2022-08-18T13:37:29;8.73;;;5.97;;
71366;SDS011;60030;52.274;8.040;2022-08-18T13:39:57;7.85;;;6.10;;
71366;SDS011;60030;52.274;8.040;2022-08-18T13:42:24;5.30;;;4.80;;
71366;SDS011;60030;52.274;8.040;2022-08-18T13:44:53;5.35;;;4.72;;
71366;SDS011;60030;52.274;8.040;2022-08-18T13:47:23;5.40;;;4.20;;
71366;SDS011;60030;52.274;8.040;2022-08-18T13:49:53;6.85;;;4.78;;
71366;SDS011;60030;52.274;8.040;2022-08-18T13:52:21;5.57;;;4.80;;
71366;SDS011;60030;52.274;8.040;2022-08-18T13:54:49;6.97;;;4.80;;
71366;SDS011;60030;52.274;8.040;2022-08-18T13:57:17;5.45;;;4.68;;
71366;SDS011;60030;52.274;8.040;2022-08-18T13:59:44;6.00;;;5.00;;
71366;SDS011;60030;52.274;8.040;2022-08-18T14:02:11;7.40;;;5.20;;
71366;SDS011;60030;52.274;8.040;2022-08-18T14:04:38;5.45;;;4.85;;
71366;SDS011;60030;52.274;8.040;2022-08-18T14:07:06;6.60;;;4.90;;
71366;SDS011;60030;52.274;8.040;2022-08-18T14:09:33;6.10;;;5.03;;
71366;SDS011;60030;52.274;8.040;2022-08-18T14:12:02;6.13;;;5.22;;
71366;SDS011;60030;52.274;8.040;2022-08-18T14:14:31;5.07;;;4.60;;
71366;SDS011;60030;52.274;8.040;2022-08-18T14:16:58;5.32;;;4.65;;
71366;SDS011;60030;52.274;8.040;2022-08-18T14:19:26;4.57;;;4.10;;
71366;SDS011;60030;52.274;8.040;2022-08-18T14:22:10;5.75;;;4.40;;
71366;SDS011;60030;52.274;8.040;2022-08-18T14:24:55;4.65;;;4.28;;
71366;SDS011;60030;52.274;8.040;2022-08-18T14:27:41;4.88;;;4.20;;
71366;SDS011;60030;52.274;8.040;2022-08-18T14:30:09;7.13;;;4.05;;
71366;SDS011;60030;52.274;8.040;2022-08-18T14:32:39;8.23;;;4.78;;
71366;SDS011;60030;52.274;8.040;2022-08-18T14:35:08;5.93;;;3.95;;
71366;SDS011;60030;52.274;8.040;2022-08-18T14:37:36;4.68;;;4.28;;
71366;SDS011;60030;52.274;8.040;2022-08-18T14:40:04;4.70;;;4.30;;
71366;SDS011;60030;52.274;8.040;2022-08-18T14:42:32;5.72;;;3.90;;
71366;SDS011;60030;52.274;8.040;2022-08-18T14:45:02;4.60;;;3.80;;
71366;SDS011;60030;52.274;8.040;2022-08-18T14:47:31;4.25;;;3.85;;
71366;SDS011;60030;52.274;8.040;2022-08-18T14:49:58;6.95;;;3.70;;
71366;SDS011;60030;52.274;8.040;2022-08-18T14:52:26;5.57;;;3.55;;
71366;SDS011;60030;52.274;8.040;2022-08-18T14:54:53;5.57;;;4.00;;
71366;SDS011;60030;52.274;8.040;2022-08-18T14:57:20;5.07;;;4.25;;
71366;SDS011;60030;52.274;8.040;2022-08-18T14:59:51;5.13;;;4.13;;
71366;SDS011;60030;52.274;8.040;2022-08-18T15:02:20;4.00;;;3.45;;
71366;SDS011;60030;52.274;8.040;2022-08-18T15:04:47;4.50;;;3.90;;
71366;SDS011;60030;52.274;8.040;2022-08-18T15:07:14;4.55;;;3.83;;
71366;SDS011;60030;52.274;8.040;2022-08-18T15:09:41;6.10;;;4.00;;
71366;SDS011;60030;52.274;8.040;2022-08-18T15:12:09;4.38;;;3.65;;
71366;SDS011;60030;52.274;8.040;2022-08-18T15:14:36;8.65;;;4.05;;
71366;SDS011;60030;52.274;8.040;2022-08-18T15:17:03;4.53;;;3.67;;
71366;SDS011;60030;52.274;8.040;2022-08-18T15:19:33;6.95;;;3.58;;
71366;SDS011;60030;52.274;8.040;2022-08-18T15:22:00;4.95;;;3.60;;
71366;SDS011;60030;52.274;8.040;2022-08-18T15:24:56;3.92;;;3.63;;
71366;SDS011;60030;52.274;8.040;2022-08-18T15:27:40;5.38;;;3.40;;